Time;durP1;ratioP1;P1;durP2;ratioP2;P2;SDS_P1;SDS_P2;PMS_P1;PMS_P2;Temp;Humidity;BMP_temperature;BMP_pressure;BME280_temperature;BME280_humidity;BME280_pressure;Samples;Min_cycle;Max_cycle;Signal;HPM_P1;HPM_P2
2022/09/01 00:00:20;;;;;;;2.93;1.33;;;;;;;12.25;100.00;102610.31;7379786;19;20411;-55
2022/09/01 00:02:50;;;;;;;5.40;3.20;;;;;;;12.38;100.00;102605.91;7395820;19;20944;-54
2022/09/01 00:05:19;;;;;;;3.17;2.00;;;;;;;12.37;100.00;102611.91;7380394;19;20456;-54
2022/09/01 00:07:49;;;;;;;3.47;2.00;;;;;;;12.22;100.00;102620.47;7396142;19;20392;-47
2022/09/01 00:10:19;;;;;;;4.60;2.60;;;;;;;12.17;100.00;102634.81;7390225;19;20464;-51
2022/09/01 00:12:48;;;;;;;4.13;2.80;;;;;;;12.18;100.00;102638.28;7395399;19;20383;-52
2022/09/01 00:15:21;;;;;;;7.37;2.97;;;;;;;12.14;100.00;102686.34;7379344;19;20429;-49
2022/09/01 00:17:50;;;;;;;4.57;3.03;;;;;;;12.12;100.00;102669.81;7395449;19;20931;-48
2022/09/01 00:20:20;;;;;;;4.80;2.90;;;;;;;12.09;100.00;102654.09;7388627;19;20492;-57
2022/09/01 00:22:50;;;;;;;2.93;1.90;;;;;;;12.10;100.00;102641.25;7394954;19;20735;-56
2022/09/01 00:25:22;;;;;;;5.30;2.30;;;;;;;12.10;100.00;102636.06;7377738;19;20527;-53
2022/09/01 00:27:52;;;;;;;5.13;1.80;;;;;;;12.10;100.00;102630.03;7395773;19;20393;-49
2022/09/01 00:30:24;;;;;;;2.93;1.80;;;;;;;12.04;100.00;102621.88;7385879;19;20773;-51
2022/09/01 00:32:54;;;;;;;4.07;1.90;;;;;;;12.02;100.00;102599.31;7394864;19;20401;-59
2022/09/01 00:35:23;;;;;;;3.60;2.43;;;;;;;12.23;100.00;102591.22;7391933;19;20408;-55
2022/09/01 00:37:53;;;;;;;5.30;3.43;;;;;;;12.49;100.00;102579.03;7394982;19;20387;-53
2022/09/01 00:40:25;;;;;;;38.70;23.27;;;;;;;12.74;100.00;102595.19;7394008;19;20648;-55
2022/09/01 00:42:55;;;;;;;3.50;2.13;;;;;;;12.44;100.00;102619.25;7394256;19;20426;-53
2022/09/01 00:45:29;;;;;;;8.10;3.67;;;;;;;12.51;100.00;102626.59;7392061;19;20452;-55
2022/09/01 00:47:59;;;;;;;25.67;16.07;;;;;;;12.68;100.00;102631.97;7370474;19;20390;-55
2022/09/01 00:50:29;;;;;;;9.50;6.03;;;;;;;12.71;100.00;102641.63;7393935;19;20393;-55
2022/09/01 00:52:59;;;;;;;4.97;2.83;;;;;;;12.63;100.00;102654.09;7379631;19;20394;-59
2022/09/01 00:55:35;;;;;;;5.30;3.50;;;;;;;12.64;100.00;102661.97;7392102;19;20426;-53
2022/09/01 00:58:06;;;;;;;3.63;2.33;;;;;;;12.56;100.00;102660.56;7387079;19;20392;-55
2022/09/01 01:00:52;;;;;;;6.40;4.03;;;;;;;12.69;100.00;102662.25;7394311;19;20400;-54
2022/09/01 01:03:22;;;;;;;3.90;2.40;;;;;;;12.65;100.00;102668.00;7384288;19;20493;-55
2022/09/01 01:05:56;;;;;;;5.53;2.90;;;;;;;12.64;100.00;102671.41;7394381;19;20397;-52
2022/09/01 01:08:32;;;;;;;3.57;2.13;;;;;;;12.53;100.00;102670.72;7385790;19;20430;-54
2022/09/01 01:11:03;;;;;;;3.50;2.37;;;;;;;12.52;100.00;102669.81;7395420;19;20460;-51
2022/09/01 01:13:34;;;;;;;2.63;1.67;;;;;;;12.39;100.00;102659.47;7378586;19;20428;-59
2022/09/01 01:16:08;;;;;;;3.90;1.70;;;;;;;12.33;100.00;102664.25;7393873;19;20391;-57
2022/09/01 01:18:38;;;;;;;4.03;2.57;;;;;;;12.56;100.00;102650.19;7377649;19;20438;-58
2022/09/01 01:24:01;;;;;;;16.53;9.93;;;;;;;12.39;100.00;102649.13;7381374;19;20689;-55
2022/09/01 01:26:33;;;;;;;5.10;3.50;;;;;;;12.43;100.00;102645.94;7393228;19;20925;-55
2022/09/01 01:29:03;;;;;;;10.90;6.37;;;;;;;12.36;100.00;102642.06;7380261;19;20451;-55
2022/09/01 01:31:34;;;;;;;29.63;17.20;;;;;;;12.56;100.00;102643.34;7393680;19;20928;-55
2022/09/01 01:34:06;;;;;;;7.30;3.37;;;;;;;12.36;100.00;102643.75;7385011;19;20450;-54
2022/09/01 01:36:38;;;;;;;3.93;2.60;;;;;;;12.22;100.00;102643.78;7392606;19;20910;-54
2022/09/01 01:39:12;;;;;;;5.27;2.00;;;;;;;12.07;100.00;102640.16;7381106;19;20776;-47
2022/09/01 01:41:47;;;;;;;3.30;1.90;;;;;;;11.94;100.00;102626.38;7393169;19;20395;-54
2022/09/01 01:44:19;;;;;;;7.50;3.00;;;;;;;11.89;100.00;102597.63;7375265;19;20415;-54
2022/09/01 01:46:51;;;;;;;3.90;1.90;;;;;;;11.83;100.00;102573.03;7392734;19;20402;-52
2022/09/01 01:49:24;;;;;;;3.57;2.50;;;;;;;11.79;100.00;102540.91;7375303;19;20408;-51
2022/09/01 01:51:56;;;;;;;3.10;1.90;;;;;;;11.81;100.00;102512.59;7395502;19;20799;-56
2022/09/01 01:54:31;;;;;;;6.23;2.70;;;;;;;11.79;100.00;102488.31;7382395;19;20780;-56
2022/09/01 01:57:03;;;;;;;4.23;1.80;;;;;;;11.73;100.00;102469.03;7392860;19;20400;-52
2022/09/01 01:59:33;;;;;;;2.70;1.83;;;;;;;11.72;100.00;102456.91;7382225;19;20433;-53
2022/09/01 02:02:08;;;;;;;4.17;2.00;;;;;;;11.71;100.00;102449.94;7392811;19;20390;-56
2022/09/01 02:04:39;;;;;;;4.37;2.93;;;;;;;11.72;100.00;102361.22;7380751;19;20474;-57
2022/09/01 02:07:11;;;;;;;3.63;2.40;;;;;;;11.66;100.00;102340.16;7392426;19;20390;-54
2022/09/01 02:09:44;;;;;;;4.00;2.43;;;;;;;11.64;100.00;102322.75;7385253;19;20432;-51
2022/09/01 02:12:17;;;;;;;4.33;2.77;;;;;;;11.68;100.00;102307.53;7392344;19;20400;-54
2022/09/01 02:14:48;;;;;;;4.40;2.87;;;;;;;11.58;100.00;102297.41;7380161;19;20437;-53
2022/09/01 02:17:20;;;;;;;2.97;2.13;;;;;;;11.56;100.00;102293.84;7392247;19;20421;-53
2022/09/01 02:19:49;;;;;;;3.67;2.70;;;;;;;11.53;100.00;102286.78;7383550;19;20433;-51
2022/09/01 02:22:20;;;;;;;2.60;1.87;;;;;;;11.48;100.00;102271.00;7394869;19;20399;-53
2022/09/01 02:24:52;;;;;;;5.80;2.50;;;;;;;11.43;100.00;102262.06;7388472;19;20416;-55
2022/09/01 02:27:28;;;;;;;5.57;2.00;;;;;;;11.45;100.00;102252.69;7399313;19;20391;-57
2022/09/01 02:29:57;;;;;;;3.97;2.40;;;;;;;11.43;100.00;102241.38;7391136;19;20891;-54
2022/09/01 02:32:27;;;;;;;4.40;3.00;;;;;;;11.42;100.00;102244.78;7399050;19;20391;-52
2022/09/01 02:35:00;;;;;;;3.63;2.50;;;;;;;11.39;100.00;102236.81;7387466;19;20424;-48
2022/09/01 02:37:29;;;;;;;3.30;2.03;;;;;;;11.40;100.00;102240.31;7399142;19;20416;-55
2022/09/01 02:39:59;;;;;;;4.77;2.70;;;;;;;11.47;100.00;102227.88;7383772;19;20433;-51
2022/09/01 02:42:31;;;;;;;4.50;2.50;;;;;;;11.42;100.00;102224.09;7398879;19;20913;-56
2022/09/01 02:45:01;;;;;;;3.00;2.47;;;;;;;11.31;100.00;102213.09;7388042;19;20416;-50
2022/09/01 02:47:31;;;;;;;6.00;2.87;;;;;;;11.32;100.00;102221.72;7398684;19;20386;-53
2022/09/01 02:50:02;;;;;;;3.10;2.40;;;;;;;11.29;100.00;102211.22;7360494;19;20947;-53
2022/09/01 02:52:34;;;;;;;4.33;2.67;;;;;;;11.34;100.00;102212.41;7398547;19;20731;-54
2022/09/01 02:55:03;;;;;;;4.00;2.37;;;;;;;11.33;100.00;102205.44;7381420;19;20420;-51
2022/09/01 02:57:36;;;;;;;3.47;2.60;;;;;;;11.29;100.00;102200.88;7398677;19;20458;-50
2022/09/01 03:00:19;;;;;;;3.73;2.53;;;;;;;11.30;100.00;102202.66;7388783;19;20798;-54
2022/09/01 03:02:51;;;;;;;5.20;2.40;;;;;;;11.25;100.00;102197.22;7397764;19;20386;-53
2022/09/01 03:05:25;;;;;;;4.53;3.33;;;;;;;11.21;100.00;102198.72;7388085;19;20414;-53
2022/09/01 03:07:58;;;;;;;8.60;3.43;;;;;;;11.17;100.00;102194.16;7398363;19;20387;-54
2022/09/01 03:10:32;;;;;;;5.87;3.77;;;;;;;11.14;100.00;102190.50;7396722;19;20422;-55
2022/09/01 03:13:08;;;;;;;4.70;2.83;;;;;;;11.18;100.00;102188.19;7387062;19;21233;-50
2022/09/01 03:15:38;;;;;;;3.77;2.93;;;;;;;11.25;100.00;102189.47;7395015;19;20421;-55
2022/09/01 03:18:10;;;;;;;4.70;3.30;;;;;;;11.20;100.00;102186.63;7383058;19;20384;-55
2022/09/01 03:20:42;;;;;;;6.13;3.67;;;;;;;11.23;100.00;102192.75;7395218;19;20381;-53
2022/09/01 03:23:14;;;;;;;5.13;3.03;;;;;;;11.14;100.00;102187.91;7382789;19;20393;-56
2022/09/01 03:25:48;;;;;;;4.20;3.13;;;;;;;11.11;100.00;102186.03;7397756;19;20398;-52
2022/09/01 03:28:21;;;;;;;4.60;2.90;;;;;;;11.03;100.00;102192.41;7382467;19;20432;-58
2022/09/01 03:30:53;;;;;;;4.90;3.10;;;;;;;11.06;100.00;102196.06;7397173;19;20406;-52
2022/09/01 03:33:25;;;;;;;3.90;2.93;;;;;;;11.16;100.00;102182.03;7381340;19;20411;-52
2022/09/01 03:35:55;;;;;;;3.47;2.67;;;;;;;11.16;100.00;102184.63;7397235;19;20760;-54
2022/09/01 03:38:25;;;;;;;4.60;3.27;;;;;;;11.17;100.00;102186.41;7386235;19;20411;-54
2022/09/01 03:41:03;;;;;;;6.70;4.40;;;;;;;11.16;100.00;102175.97;7395447;19;20386;-56
2022/09/01 03:43:36;;;;;;;5.30;3.80;;;;;;;11.12;100.00;102182.63;7382555;19;20451;-53
2022/09/01 03:46:18;;;;;;;9.33;4.17;;;;;;;11.13;100.00;102174.09;7396841;19;20390;-55
2022/09/01 03:48:49;;;;;;;4.97;4.00;;;;;;;11.09;100.00;102172.13;7360226;19;20406;-54
2022/09/01 03:51:21;;;;;;;6.03;4.10;;;;;;;11.07;100.00;102173.69;7395756;19;21049;-58
2022/09/01 03:53:56;;;;;;;6.10;4.27;;;;;;;11.06;100.00;102180.56;7369460;19;20414;-53
2022/09/01 03:56:28;;;;;;;6.70;3.40;;;;;;;11.13;100.00;102174.09;7396396;19;20781;-55
2022/09/01 03:59:01;;;;;;;5.27;3.90;;;;;;;11.05;100.00;102175.31;7382199;19;20404;-59
2022/09/01 04:01:36;;;;;;;10.43;4.17;;;;;;;10.99;100.00;102180.09;7394749;19;20915;-52
2022/09/01 04:04:06;;;;;;;5.37;3.50;;;;;;;10.92;100.00;102179.69;7386193;19;20785;-50
2022/09/01 04:06:36;;;;;;;4.00;3.17;;;;;;;10.82;100.00;102169.56;7395911;19;20384;-58
2022/09/01 04:09:05;;;;;;;7.87;3.73;;;;;;;10.77;100.00;102177.03;7381406;19;20778;-55
2022/09/01 04:11:35;;;;;;;5.40;3.47;;;;;;;10.87;100.00;102170.75;7395995;19;20385;-52
2022/09/01 04:14:07;;;;;;;5.20;3.60;;;;;;;10.80;100.00;102168.59;7385285;19;20430;-50
2022/09/01 04:19:29;;;;;;;6.23;3.77;;;;;;;10.81;100.00;102165.22;7384936;19;20420;-52
2022/09/01 04:22:01;;;;;;;6.07;3.73;;;;;;;10.73;100.00;102166.44;7393715;19;20385;-56
2022/09/01 04:24:33;;;;;;;8.63;3.93;;;;;;;10.70;100.00;102166.22;7379488;19;20774;-49
2022/09/01 04:27:06;;;;;;;5.63;3.63;;;;;;;10.69;100.00;102169.59;7395512;19;20408;-53
2022/09/01 04:29:38;;;;;;;4.87;3.77;;;;;;;10.60;100.00;102167.31;7380944;19;20415;-54
2022/09/01 04:32:14;;;;;;;7.40;3.90;;;;;;;10.57;100.00;102174.88;7394788;19;20920;-55
2022/09/01 04:34:44;;;;;;;9.80;4.23;;;;;;;10.56;100.00;102165.34;7385402;19;20450;-54
2022/09/01 04:37:16;;;;;;;7.40;4.80;;;;;;;10.50;100.00;102158.09;7394703;19;20784;-56
2022/09/01 04:39:51;;;;;;;5.70;4.10;;;;;;;10.47;100.00;102163.06;7387934;19;20433;-53
2022/09/01 04:42:27;;;;;;;6.73;5.07;;;;;;;10.49;100.00;102158.88;7394689;19;20399;-52
2022/09/01 04:45:01;;;;;;;6.87;4.40;;;;;;;10.52;100.00;102156.53;7383035;19;20787;-55
2022/09/01 04:47:41;;;;;;;7.23;4.33;;;;;;;10.57;100.00;102156.81;7394756;19;20400;-51
2022/09/01 04:50:16;;;;;;;6.20;4.40;;;;;;;10.60;100.00;102155.31;7386297;19;20432;-54
2022/09/01 04:52:46;;;;;;;7.93;4.40;;;;;;;10.58;100.00;102162.09;7393956;19;20463;-55
2022/09/01 04:55:18;;;;;;;6.73;4.30;;;;;;;10.55;100.00;102167.03;7385991;19;20529;-58
2022/09/01 04:57:49;;;;;;;8.63;4.87;;;;;;;10.58;100.00;102167.25;7394617;19;20388;-54
2022/09/01 05:00:27;;;;;;;9.23;5.20;;;;;;;10.61;100.00;102159.69;7379531;19;20403;-53
2022/09/01 05:03:01;;;;;;;8.03;4.83;;;;;;;10.64;100.00;102157.31;7386663;19;20383;-54
2022/09/01 05:05:38;;;;;;;8.00;4.40;;;;;;;10.71;100.00;102165.44;7391895;19;20755;-59
2022/09/01 05:08:12;;;;;;;7.20;4.87;;;;;;;10.78;100.00;102168.50;7377204;19;20400;-52
2022/09/01 05:10:55;;;;;;;9.33;4.07;;;;;;;10.73;100.00;102174.16;7394057;19;20395;-54
2022/09/01 05:13:26;;;;;;;4.70;3.90;;;;;;;10.64;100.00;102170.22;7379079;19;20420;-52
2022/09/01 05:16:06;;;;;;;5.23;4.20;;;;;;;10.67;100.00;102169.53;7393952;19;20402;-51
2022/09/01 05:18:35;;;;;;;8.50;4.83;;;;;;;10.74;100.00;102173.38;7378138;19;20422;-51
2022/09/01 05:21:09;;;;;;;8.70;4.10;;;;;;;10.79;100.00;102177.16;7392519;19;20382;-54
2022/09/01 05:23:39;;;;;;;13.97;5.17;;;;;;;10.83;100.00;102179.13;7384011;19;20427;-52
2022/09/01 05:26:15;;;;;;;7.30;4.70;;;;;;;10.82;100.00;102166.13;7393090;19;20389;-51
2022/09/01 05:28:45;;;;;;;5.63;3.80;;;;;;;10.81;100.00;102172.97;7385585;19;20407;-55
2022/09/01 05:31:18;;;;;;;7.43;4.07;;;;;;;10.83;100.00;102185.97;7393039;19;20406;-55
2022/09/01 05:33:49;;;;;;;12.10;4.90;;;;;;;10.89;100.00;102187.28;7377251;19;21017;-57
2022/09/01 05:36:21;;;;;;;10.43;5.80;;;;;;;10.94;100.00;102188.44;7392753;19;20407;-54
2022/09/01 05:38:52;;;;;;;8.20;5.93;;;;;;;11.05;100.00;102185.63;7378656;19;20474;-54
2022/09/01 05:41:23;;;;;;;5.97;4.30;;;;;;;11.15;100.00;102193.19;7391992;19;20487;-57
2022/09/01 05:43:53;;;;;;;10.50;4.80;;;;;;;11.13;100.00;102193.88;7384300;19;20416;-54
2022/09/01 05:46:31;;;;;;;6.40;3.57;;;;;;;11.17;100.00;102199.31;7392638;19;20397;-55
2022/09/01 05:49:01;;;;;;;8.57;4.27;;;;;;;11.34;100.00;102202.06;7381191;19;20823;-57
2022/09/01 05:51:33;;;;;;;6.63;3.70;;;;;;;11.67;100.00;102202.34;7393099;19;20712;-55
2022/09/01 05:54:15;;;;;;;5.93;3.63;;;;;;;12.11;100.00;102198.03;7376239;19;20438;-58
2022/09/01 05:56:45;;;;;;;8.30;4.33;;;;;;;12.11;100.00;102212.69;7394042;19;20389;-54
2022/09/01 05:59:15;;;;;;;13.77;9.33;;;;;;;12.21;100.00;102214.13;7384780;19;20970;-56
2022/09/01 06:01:57;;;;;;;26.03;14.53;;;;;;;12.29;100.00;102218.03;7398678;19;20903;-51
2022/09/01 06:04:28;;;;;;;11.60;7.47;;;;;;;12.44;100.00;102223.19;7388771;19;20778;-47
2022/09/01 06:06:58;;;;;;;7.67;4.57;;;;;;;12.45;100.00;102234.47;7402809;19;20473;-52
2022/09/01 06:09:39;;;;;;;8.07;5.20;;;;;;;12.53;100.00;102234.09;7383957;19;20975;-52
2022/09/01 06:12:16;;;;;;;25.40;14.00;;;;;;;12.71;100.00;102238.53;7399631;19;20387;-53
2022/09/01 06:14:47;;;;;;;16.80;8.70;;;;;;;12.70;100.00;102234.16;7389130;19;20781;-53
2022/09/01 06:17:23;;;;;;;37.27;19.30;;;;;;;13.06;100.00;102234.44;7398919;19;20385;-53
2022/09/01 06:19:54;;;;;;;13.30;5.40;;;;;;;13.00;100.00;102252.22;7392128;19;20748;-56
2022/09/01 06:22:25;;;;;;;3.80;2.23;;;;;;;12.94;100.00;102247.59;7397380;19;20394;-49
2022/09/01 06:24:58;;;;;;;4.80;2.07;;;;;;;12.88;100.00;102256.72;7384837;19;20742;-57
2022/09/01 06:27:31;;;;;;;4.43;2.27;;;;;;;12.88;100.00;102261.91;7399189;19;20917;-54
2022/09/01 06:30:01;;;;;;;7.87;2.20;;;;;;;12.88;100.00;102267.09;7390415;19;20417;-58
2022/09/01 06:32:37;;;;;;;3.43;1.90;;;;;;;12.93;100.00;102265.66;7399310;19;20384;-53
2022/09/01 06:35:10;;;;;;;3.50;2.20;;;;;;;13.03;100.00;102270.50;7388798;19;20418;-49
2022/09/01 06:37:41;;;;;;;10.93;1.70;;;;;;;13.12;100.00;102264.09;7398982;19;20395;-54
2022/09/01 06:40:15;;;;;;;3.40;1.70;;;;;;;13.21;100.00;102268.06;7389235;19;20434;-51
2022/09/01 06:42:46;;;;;;;3.80;2.17;;;;;;;13.31;100.00;102272.06;7396068;19;20399;-52
2022/09/01 06:45:16;;;;;;;7.80;2.40;;;;;;;13.37;100.00;102271.50;7381450;19;20416;-52
2022/09/01 06:47:49;;;;;;;6.60;2.20;;;;;;;13.52;100.00;102274.06;7399021;19;20384;-50
2022/09/01 06:50:26;;;;;;;3.97;2.40;;;;;;;13.61;100.00;102278.84;7397482;19;20418;-51
2022/09/01 06:53:17;;;;;;;9.40;3.50;;;;;;;13.69;100.00;102281.84;7389288;19;20378;-56
2022/09/01 06:56:04;;;;;;;3.37;1.97;;;;;;;13.86;100.00;102281.06;7398306;19;20404;-55
2022/09/01 06:58:34;;;;;;;2.20;1.40;;;;;;;13.91;100.00;102289.94;7383756;19;20432;-50
2022/09/01 07:01:13;;;;;;;4.20;2.80;;;;;;;13.97;100.00;102291.09;7397485;19;20766;-51
2022/09/01 07:03:46;;;;;;;3.00;1.40;;;;;;;14.09;100.00;102294.31;7381325;19;20435;-52
2022/09/01 07:06:17;;;;;;;8.33;1.70;;;;;;;14.25;100.00;102295.13;7397953;19;20394;-55
2022/09/01 07:09:06;;;;;;;2.73;1.43;;;;;;;14.33;100.00;102304.19;7379971;19;20423;-51
2022/09/01 07:11:57;;;;;;;5.50;1.83;;;;;;;14.40;100.00;102301.09;7401109;19;20953;-54
2022/09/01 07:14:47;;;;;;;3.13;1.57;;;;;;;14.41;100.00;102302.84;7380857;19;20756;-54
2022/09/01 07:17:38;;;;;;;13.90;5.00;;;;;;;14.62;100.00;102307.38;7397403;19;20914;-52
2022/09/01 07:20:12;;;;;;;11.10;4.83;;;;;;;14.73;100.00;102318.28;7382875;19;20413;-54
2022/09/01 07:22:59;;;;;;;18.27;5.90;;;;;;;15.04;100.00;102321.50;7389131;19;20383;-59
2022/09/01 07:25:36;;;;;;;8.47;4.03;;;;;;;15.19;100.00;102327.47;7394376;19;20423;-51
2022/09/01 07:28:28;;;;;;;7.20;2.47;;;;;;;15.35;100.00;102343.78;7388284;19;20411;-54
2022/09/01 07:31:07;;;;;;;4.40;1.70;;;;;;;15.47;100.00;102348.66;7397321;19;20393;-50
2022/09/01 07:33:59;;;;;;;6.23;2.37;;;;;;;15.63;100.00;102360.66;7387745;19;20420;-51
2022/09/01 07:36:55;;;;;;;8.07;1.53;;;;;;;15.62;100.00;102366.69;7397221;19;20409;-54
2022/09/01 07:39:46;;;;;;;6.43;1.77;;;;;;;15.83;100.00;102376.34;7387895;19;20446;-54
2022/09/01 07:42:19;;;;;;;2.80;0.90;;;;;;;15.85;100.00;102390.28;7396159;19;20384;-55
2022/09/01 07:45:11;;;;;;;3.43;1.40;;;;;;;15.96;100.00;102402.13;7386231;19;20417;-51
2022/09/01 07:47:58;;;;;;;2.77;1.40;;;;;;;16.05;100.00;102428.56;7391151;19;20398;-53
2022/09/01 07:50:29;;;;;;;81.13;44.30;;;;;;;16.12;100.00;102450.56;7395769;19;20403;-51
2022/09/01 07:53:24;;;;;;;17.03;10.93;;;;;;;16.37;100.00;102472.53;7383513;19;20407;-54
2022/09/01 07:55:55;;;;;;;10.30;6.90;;;;;;;16.49;100.00;102487.78;7396818;19;20383;-51
2022/09/01 07:58:28;;;;;;;18.00;10.53;;;;;;;16.53;100.00;102500.16;7391159;19;20418;-55
2022/09/01 08:00:58;;;;;;;10.43;6.30;;;;;;;16.54;100.00;102512.34;7396682;19;20386;-47
2022/09/01 08:03:28;;;;;;;5.77;2.90;;;;;;;16.61;100.00;102539.56;7382029;19;20412;-52
2022/09/01 08:05:59;;;;;;;5.13;2.60;;;;;;;16.72;100.00;102558.31;7396332;19;20384;-54
2022/09/01 08:08:31;;;;;;;4.60;2.53;;;;;;;16.84;100.00;102569.28;7388004;19;20431;-58
2022/09/01 08:11:04;;;;;;;13.43;7.03;;;;;;;16.94;100.00;102575.78;7395954;19;20834;-55
2022/09/01 08:13:34;;;;;;;45.10;25.90;;;;;;;16.95;100.00;102605.34;7387498;19;20449;-52
2022/09/01 08:16:11;;;;;;;9.17;4.50;;;;;;;16.86;100.00;102614.53;7395848;19;20393;-50
2022/09/01 08:18:49;;;;;;;19.43;13.67;;;;;;;17.05;100.00;102649.28;7385983;19;20440;-52
2022/09/01 08:21:20;;;;;;;2.87;1.50;;;;;;;17.09;100.00;102702.47;7394398;19;20389;-51
2022/09/01 08:23:54;;;;;;;8.40;4.27;;;;;;;17.11;100.00;102738.25;7385215;19;20436;-54
2022/09/01 08:26:25;;;;;;;4.20;1.27;;;;;;;17.12;100.00;102745.22;7395194;19;20925;-55
2022/09/01 08:28:55;;;;;;;5.53;2.03;;;;;;;17.25;100.00;102745.81;7386883;19;20420;-53
2022/09/01 08:31:26;;;;;;;3.07;0.80;;;;;;;17.30;100.00;102743.41;7395064;19;20460;-53
2022/09/01 08:33:59;;;;;;;7.87;5.00;;;;;;;17.36;100.00;102704.53;7385029;19;20493;-54
2022/09/01 08:36:29;;;;;;;1.77;0.67;;;;;;;17.39;100.00;102610.78;7395368;19;20392;-54
2022/09/01 08:39:01;;;;;;;2.40;0.87;;;;;;;17.43;100.00;102497.00;7386490;19;20432;-58
2022/09/01 08:41:42;;;;;;;2.40;0.80;;;;;;;17.48;100.00;102391.97;7394535;19;20387;-56
2022/09/01 08:44:22;;;;;;;2.70;0.77;;;;;;;17.54;100.00;102333.94;7380977;19;20577;-54
2022/09/01 08:46:57;;;;;;;2.73;1.13;;;;;;;17.62;100.00;102313.34;7395146;19;20389;-53
2022/09/01 08:49:27;;;;;;;2.10;0.80;;;;;;;17.74;100.00;102294.66;7386257;19;20426;-55
2022/09/01 08:52:02;;;;;;;2.40;0.80;;;;;;;17.81;100.00;102278.38;7394689;19;20382;-54
2022/09/01 08:54:39;;;;;;;4.70;1.67;;;;;;;17.92;100.00;102248.31;7384781;19;20850;-53
2022/09/01 08:57:11;;;;;;;2.30;1.00;;;;;;;18.00;100.00;102232.91;7394294;19;20396;-49
2022/09/01 08:59:41;;;;;;;2.93;1.10;;;;;;;18.04;100.00;102208.69;7385976;19;20940;-56
2022/09/01 09:02:23;;;;;;;3.97;0.90;;;;;;;18.10;100.00;102158.41;7394411;19;20789;-56
2022/09/01 09:05:00;;;;;;;3.10;0.97;;;;;;;18.13;100.00;102121.06;7383393;19;20411;-57
2022/09/01 09:07:40;;;;;;;1.80;0.60;;;;;;;18.22;100.00;102074.34;7393981;19;20811;-56
2022/09/01 09:10:17;;;;;;;3.47;0.90;;;;;;;18.35;100.00;101976.34;7386824;19;20427;-55
2022/09/01 09:12:56;;;;;;;2.90;0.70;;;;;;;18.45;100.00;101841.63;7394296;19;20474;-52
2022/09/01 09:15:30;;;;;;;1.90;0.60;;;;;;;18.45;100.00;101743.25;7391015;19;20406;-50
2022/09/01 09:18:09;;;;;;;2.33;0.70;;;;;;;18.54;100.00;101737.34;7387348;19;20729;-51
2022/09/01 09:20:59;;;;;;;2.93;0.70;;;;;;;18.63;100.00;101721.88;7394338;19;20735;-49
2022/09/01 09:23:33;;;;;;;1.80;0.50;;;;;;;18.67;100.00;101751.59;7382429;19;20415;-54
2022/09/01 09:26:05;;;;;;;2.03;0.73;;;;;;;18.69;100.00;101760.38;7393804;19;20750;-54
2022/09/01 09:28:38;;;;;;;2.90;1.00;;;;;;;18.78;100.00;101775.41;7385261;19;20415;-54
2022/09/01 09:31:26;;;;;;;3.30;0.60;;;;;;;18.92;100.00;101780.94;7393005;19;20399;-55
2022/09/01 09:33:57;;;;;;;2.20;0.70;;;;;;;19.04;100.00;101793.44;7379986;19;20493;-52
2022/09/01 09:36:33;;;;;;;2.60;0.70;;;;;;;19.00;100.00;101788.97;7393161;19;20375;-51
2022/09/01 09:39:07;;;;;;;4.20;1.00;;;;;;;19.09;100.00;101777.84;7378152;19;20418;-53
2022/09/01 09:41:40;;;;;;;2.60;0.80;;;;;;;19.06;100.00;101773.44;7393082;19;20735;-55
2022/09/01 09:44:23;;;;;;;2.63;0.80;;;;;;;19.05;100.00;101755.09;7382837;19;20422;-55
2022/09/01 09:46:52;;;;;;;3.83;1.00;;;;;;;19.24;100.00;101715.44;7393371;19;20402;-55
2022/09/01 09:49:25;;;;;;;3.07;1.07;;;;;;;19.32;100.00;101693.78;7385510;19;20425;-59
2022/09/01 09:52:18;;;;;;;6.80;1.33;;;;;;;19.32;100.00;101767.03;7392945;19;20391;-53
2022/09/01 09:55:04;;;;;;;4.00;1.40;;;;;;;19.39;100.00;101813.41;7383235;19;20434;-55
2022/09/01 09:57:40;;;;;;;4.17;1.57;;;;;;;19.08;100.00;101802.25;7392651;19;20395;-55
2022/09/01 10:00:20;;;;;;;49.33;34.90;;;;;;;19.08;100.00;101742.09;7381385;19;20449;-51
2022/09/01 10:02:55;;;;;;;4.40;2.10;;;;;;;19.26;100.00;101750.34;7391648;19;20399;-54
2022/09/01 10:05:41;;;;;;;6.60;2.97;;;;;;;19.65;100.00;101739.78;7389668;19;20415;-56
2022/09/01 10:08:14;;;;;;;4.90;3.20;;;;;;;19.87;100.00;101742.81;7379618;19;20395;-57
2022/09/01 10:10:47;;;;;;;5.93;3.00;;;;;;;19.53;100.00;101761.38;7392554;19;20717;-55
2022/09/01 10:13:30;;;;;;;11.77;2.63;;;;;;;19.21;100.00;101766.78;7382568;19;20427;-52
2022/09/01 10:16:04;;;;;;;12.73;8.43;;;;;;;19.14;100.00;101752.69;7392250;19;20403;-54
2022/09/01 10:18:39;;;;;;;8.60;6.13;;;;;;;19.07;100.00;101749.03;7384072;19;20414;-53
2022/09/01 10:21:11;;;;;;;44.73;22.43;;;;;;;19.03;100.00;101752.47;7391997;19;20388;-57
2022/09/01 10:23:40;;;;;;;67.17;38.87;;;;;;;19.49;100.00;101700.22;7380927;19;20431;-56
2022/09/01 10:26:13;;;;;;;60.97;27.17;;;;;;;19.74;100.00;101715.53;7391907;19;20379;-57
2022/09/01 10:28:50;;;;;;;22.83;6.00;;;;;;;19.88;100.00;101786.50;7383072;19;20482;-54
2022/09/01 10:31:20;;;;;;;92.53;28.40;;;;;;;20.02;100.00;101787.66;7390917;19;20922;-52
2022/09/01 10:33:50;;;;;;;70.40;39.73;;;;;;;20.00;100.00;101799.81;7381409;19;20434;-52
2022/09/01 10:36:21;;;;;;;2.17;0.80;;;;;;;19.46;100.00;101812.69;7391547;19;20462;-54
2022/09/01 10:38:53;;;;;;;11.50;2.03;;;;;;;19.37;100.00;101788.91;7383837;19;20423;-56
2022/09/01 10:41:49;;;;;;;22.77;12.47;;;;;;;19.31;100.00;101792.28;7391648;19;20387;-48
2022/09/01 10:44:33;;;;;;;13.60;7.10;;;;;;;19.40;100.00;101804.69;7388205;19;20439;-52
2022/09/01 10:47:07;;;;;;;9.77;4.00;;;;;;;19.29;100.00;101810.56;7398771;19;20422;-54
2022/09/01 10:50:00;;;;;;;8.23;2.90;;;;;;;19.15;100.00;101798.91;7389444;19;20410;-52
2022/09/01 10:52:55;;;;;;;8.50;4.40;;;;;;;19.13;100.00;101800.63;7398271;19;20392;-55
2022/09/01 10:55:27;;;;;;;3.90;1.53;;;;;;;19.10;100.00;101826.69;7394720;19;20425;-54
2022/09/01 10:58:04;;;;;;;5.80;2.90;;;;;;;19.25;100.00;101827.06;7389801;19;20429;-59
2022/09/01 11:00:57;;;;;;;5.73;1.90;;;;;;;19.48;100.00;101836.28;7398926;19;20387;-53
2022/09/01 11:03:56;;;;;;;7.20;2.83;;;;;;;19.87;100.00;101835.34;7381215;19;20415;-55
2022/09/01 11:06:57;;;;;;;8.10;3.90;;;;;;;19.80;100.00;101831.69;7398174;19;20463;-50
2022/09/01 11:09:44;;;;;;;5.43;2.73;;;;;;;20.28;100.00;101834.41;7384067;19;20419;-57
2022/09/01 11:12:39;;;;;;;2.77;0.80;;;;;;;20.47;96.27;101861.81;7397894;19;20392;-50
2022/09/01 11:15:35;;;;;;;3.80;1.47;;;;;;;20.81;89.61;101893.00;7374227;19;20941;-59
2022/09/01 11:18:10;;;;;;;4.63;1.47;;;;;;;21.04;88.24;101908.28;7383040;19;20415;-53
2022/09/01 11:20:43;;;;;;;2.80;1.23;;;;;;;20.94;85.20;101915.13;7397261;19;20403;-53
2022/09/01 11:23:22;;;;;;;5.17;2.07;;;;;;;21.08;84.99;101911.84;7371730;19;20384;-51
2022/09/01 11:25:52;;;;;;;6.10;2.27;;;;;;;20.97;81.95;101924.78;7395520;19;20396;-55
2022/09/01 11:28:44;;;;;;;5.63;2.60;;;;;;;21.05;84.00;101915.28;7382601;19;20426;-56
2022/09/01 11:31:36;;;;;;;7.23;2.60;;;;;;;21.05;87.93;101894.31;7397314;19;20375;-56
2022/09/01 11:34:22;;;;;;;5.67;1.33;;;;;;;21.15;90.28;101890.06;7380617;19;20447;-58
2022/09/01 11:36:58;;;;;;;2.70;0.93;;;;;;;21.27;92.86;101877.16;7397259;19;20383;-54
2022/09/01 11:39:36;;;;;;;5.83;0.93;;;;;;;21.50;95.74;101852.97;7379291;19;20414;-55
2022/09/01 11:42:12;;;;;;;3.07;0.70;;;;;;;21.42;96.13;101845.00;7396532;19;20393;-53
2022/09/01 11:44:46;;;;;;;4.57;1.80;;;;;;;21.41;98.34;101829.22;7373648;19;20446;-50
2022/09/01 11:47:20;;;;;;;3.43;1.10;;;;;;;21.39;93.72;101859.81;7394804;19;20430;-55
2022/09/01 11:49:55;;;;;;;3.57;1.30;;;;;;;21.31;90.99;101878.06;7390557;19;20518;-54
2022/09/01 11:52:28;;;;;;;3.30;1.53;;;;;;;21.22;91.14;101872.69;7397695;19;20401;-57
2022/09/01 11:54:58;;;;;;;3.47;0.70;;;;;;;21.21;92.79;101861.31;7379543;19;20930;-57
2022/09/01 11:57:31;;;;;;;4.70;1.13;;;;;;;21.38;93.23;101858.94;7396418;19;20379;-56